Weather observations for the past three days for
Albert Whitted Airport
| Date | Time (edt) | Wind (kph) | Vis. (km) | Weather | Sky Cond. | Temperature (ºC) | Relative Humidity | Wind Chill (°C) | Heat Index (°C) | Pressure | Precipitation (cm) | ||||||
|---|---|---|---|---|---|---|---|---|---|---|---|---|---|---|---|---|---|
| Air | Dwpt | 6 hour | altimeter (cm) | sea level (mb) | 1 hr | 3 hr | 6 hr | ||||||||||
| Max. | Min. | ||||||||||||||||
| 01 | 12:53 | Calm | 16.09 | Fair | CLR | 30.6 | 25 | 72% | 37 | 76.25 | 1016.4 | ||||||
| 01 | 11:53 | E 9 | 16.09 | Partly Cloudy | SCT010 | 28.9 | 27.8 | 94% | 38 | 76.3 | 1017.1 | ||||||
| 01 | 10:53 | NE 9 | 16.09 | Partly Cloudy | SCT011 | 28.3 | 27.8 | 97% | 36 | 76.3 | 1017.0 | ||||||
| 01 | 09:53 | E 13 | 0.00 | NULL | NULL | 28.3 | 21.7 | 67% | 31 | 76.25 | 1016.6 | ||||||
| 01 | 08:53 | NE 11 | 16.09 | Mostly Cloudy | BKN007 | 27.2 | 25 | 88% | 31 | 76.23 | 1016.3 | ||||||
| 01 | 07:53 | NE 13 | 16.09 | Mostly Cloudy | BKN010 | 26.7 | 26.1 | 27.2 | 26.7 | 97% | 30 | 76.2 | 1015.9 | ||||
| 01 | 06:53 | N 9 | 16.09 | Mostly Cloudy | BKN012 | 26.7 | 26.1 | 97% | 30 | 76.17 | 1015.5 | ||||||
| 01 | 05:53 | NE 11 | 16.09 | Mostly Cloudy | BKN009 | 26.7 | 26.1 | 97% | 30 | 76.15 | 1015.3 | ||||||
| 01 | 04:53 | NE 15 | 16.09 | Fair | CLR | 26.7 | 26.1 | 97% | 30 | 76.12 | 1014.7 | ||||||
| 01 | 03:53 | NE 17 | 16.09 | Fair | CLR | 27.2 | 26.1 | 94% | 32 | 76.15 | 1015.0 | ||||||
| 01 | 02:53 | NE 20 | 16.09 | Fair | CLR | 27.2 | 26.1 | 94% | 32 | 76.15 | 1015.3 | ||||||
| 01 | 01:53 | E 15 | 16.09 | Fair | CLR | 27.2 | 25.6 | 27.8 | 26.1 | 91% | 31 | 76.23 | 1016.2 | ||||
| 01 | 00:53 | E 13 | 16.09 | Fair | CLR | 27.2 | 25 | 88% | 31 | 76.28 | 1016.7 | ||||||
| 31 | 23:53 | NE 17 | 16.09 | A Few Clouds | FEW095 | 27.2 | 25 | 88% | 31 | 76.28 | 1016.9 | ||||||
| 31 | 22:53 | E 11 | 16.09 | Fair | CLR | 27.8 | 23.3 | 77% | 31 | 76.25 | 1016.7 | ||||||
| 31 | 21:53 | E 11 | 16.09 | Fair | CLR | 27.2 | 23.3 | 79% | 30 | 76.25 | 1016.6 | ||||||
| 31 | 20:53 | E 13 | 16.09 | Fair | CLR | 26.7 | 23.9 | 85% | 29 | 76.23 | 1016.1 | ||||||
| 31 | 19:53 | SE 15 | 16.09 | Light Rain | BKN047 BKN065 | 26.1 | 24.4 | 32.8 | 26.1 | 90% | 28 | 76.23 | 1016.2 | 0.03 | |||
| 31 | 18:53 | E 22 | 16.09 | Thunderstorm in Vicinity | BKN048 BKN055 | 26.7 | 25 | 90% | 30 | 76.23 | 1016.2 | ||||||
| 31 | 17:53 | E 54 G 70 | 16.09 | Thunderstorm in Vicinity and Windy | FEW017 BKN041 OVC110 | 28.3 | 25.6 | 85% | 34 | 76.23 | 1016.3 | 0.03 | |||||
| 31 | 16:53 | NW 17 | 16.09 | Overcast | BKN036 OVC055 | 31.7 | 24.4 | 65% | 38 | 76.12 | 1014.7 | ||||||
| 31 | 15:53 | Vrbl 9 | 16.09 | Partly Cloudy | SCT025 | 31.7 | 24.4 | 65% | 38 | 76.15 | 1015.1 | ||||||
| 31 | 14:53 | E 6 | 16.09 | Partly Cloudy | SCT026 | 32.2 | 23.9 | 62% | 38 | 76.17 | 1015.4 | ||||||
| 31 | 13:53 | Calm | 16.09 | Fair | CLR | 32.2 | 24.4 | 32.2 | 27.2 | 63% | 39 | 76.25 | 1016.3 | ||||
| 31 | 12:53 | NE 6 | 16.09 | Fair | CLR | 31.7 | 25.6 | 70% | 40 | 76.3 | 1017.2 | ||||||
| 31 | 11:53 | E 7 | 16.09 | Fair | CLR | 30 | 25.6 | 77% | 37 | 76.33 | 1017.6 | ||||||
| 31 | 10:53 | E 9 | 16.09 | Fair | CLR | 28.9 | 25.6 | 82% | 35 | 76.3 | 1017.2 | ||||||
| 31 | 09:53 | E 11 | 16.09 | Fair | CLR | 28.3 | 25.6 | 85% | 34 | 76.3 | 1017.2 | ||||||
| 31 | 08:53 | NE 13 | 16.09 | A Few Clouds | FEW012 | 27.2 | 25.6 | 91% | 31 | 76.3 | 1017.1 | ||||||
| 31 | 07:53 | E 7 | 16.09 | Fair | CLR | 27.2 | 25.6 | 27.2 | 26.1 | 91% | 31 | 76.25 | 1016.5 | ||||
| 31 | 06:53 | SE 11 | 16.09 | Fair | CLR | 26.1 | 25 | 94% | 28 | 76.2 | 1015.7 | ||||||
| 31 | 05:53 | SE 11 | 16.09 | Fair | CLR | 26.1 | 25 | 94% | 28 | 76.17 | 1015.3 | ||||||
| 31 | 04:53 | SE 17 | 16.09 | Fair | CLR | 26.7 | 24.4 | 87% | 30 | 76.15 | 1015.3 | ||||||
| 31 | 03:53 | E 15 | 16.09 | A Few Clouds | FEW110 | 26.7 | 25 | 90% | 30 | 76.17 | 1015.3 | ||||||
| 31 | 02:53 | SE 17 | 16.09 | Fair | CLR | 27.2 | 23.9 | 82% | 30 | 76.17 | 1015.6 | ||||||
| 31 | 01:53 | E 20 | 16.09 | Fair | CLR | 26.7 | 24.4 | 26.7 | 25.6 | 87% | 30 | 76.23 | 1016.0 | ||||
| 31 | 00:53 | E 15 | 16.09 | Fair | CLR | 26.1 | 23.9 | 88% | 28 | 76.25 | 1016.4 | ||||||
| 30 | 23:53 | E 19 | 16.09 | Fair | CLR | 26.1 | 23.9 | 88% | 28 | 76.25 | 1016.5 | ||||||
| 30 | 22:53 | E 19 | 16.09 | A Few Clouds | FEW014 | 26.1 | 24.4 | 90% | 28 | 76.28 | 1016.7 | ||||||
| 30 | 21:53 | E 20 | 16.09 | Fair | CLR | 26.7 | 23.9 | 85% | 29 | 76.28 | 1016.8 | ||||||
| 30 | 20:53 | E 11 | 16.09 | Fair | CLR | 26.1 | 23.9 | 88% | 28 | 76.23 | 1016.3 | ||||||
| 30 | 19:53 | E 9 | 16.09 | Light Rain | FEW065 BKN100 | 25.6 | 23.9 | 33.9 | 24.4 | 90% | 27 | 76.23 | 1016.1 | 0.03 | 0.81 | ||
| 30 | 18:53 | S 9 | 16.09 | Light Rain | FEW065 BKN085 OVC110 | 25.6 | 23.9 | 90% | 27 | 76.2 | 1015.7 | 0.13 | |||||
| 30 | 17:53 | S 13 | 16.09 | Thunderstorm Light Rain | FEW100 SCT120 | 25.6 | 23.9 | 90% | 27 | 76.17 | 1015.6 | 0.66 | |||||
| 30 | 16:53 | SE 50 G 69 | 9.66 | Thunderstorm Light Rain Fog/Mist and Windy | FEW016 SCT035 BKN047 | 26.1 | 24.4 | 90% | 28 | 76.15 | 1015.2 | ||||||
| 30 | 15:53 | Calm | 16.09 | Partly Cloudy | SCT026 | 33.3 | 23.3 | 56% | 39 | 76.15 | 1015.1 | ||||||
| 30 | 14:53 | Calm | 16.09 | Partly Cloudy | SCT026 | 32.8 | 24.4 | 61% | 39 | 76.2 | 1015.7 | ||||||
| 30 | 13:53 | Calm | 16.09 | Partly Cloudy | SCT040 | 31.7 | 25.6 | 31.7 | 26.7 | 70% | 40 | 76.28 | 1016.7 | ||||
| 30 | 12:53 | NE 6 | 16.09 | Fair | CLR | 31.1 | 25.6 | 73% | 39 | 76.3 | 1017.2 | ||||||
| 30 | 11:53 | NE 9 | 16.09 | A Few Clouds | FEW033 | 30 | 26.1 | 80% | 38 | 76.35 | 1017.7 | ||||||
| 30 | 10:53 | E 9 | 16.09 | Fair | CLR | 28.3 | 25.6 | 85% | 34 | 76.35 | 1018.0 | ||||||
| 30 | 09:53 | NE 15 | 16.09 | A Few Clouds | FEW019 | 27.8 | 25.6 | 88% | 33 | 76.35 | 1018.0 | ||||||
| 30 | 08:53 | E 17 | 16.09 | Partly Cloudy | SCT011 | 27.2 | 25.6 | 91% | 31 | 76.35 | 1017.7 | ||||||
| 30 | 07:53 | E 15 | 16.09 | A Few Clouds | FEW011 | 26.7 | 25 | 26.7 | 25.6 | 90% | 30 | 76.3 | 1017.1 | ||||
| 30 | 06:53 | E 13 | 16.09 | A Few Clouds | FEW015 | 26.1 | 24.4 | 90% | 28 | 76.25 | 1016.6 | ||||||
| 30 | 05:53 | SE 7 | 16.09 | Fair | CLR | 25.6 | 23.9 | 90% | 27 | 76.2 | 1015.8 | ||||||
| 30 | 04:53 | SE 13 | 16.09 | Fair | CLR | 26.1 | 23.9 | 88% | 28 | 76.2 | 1016.0 | ||||||
| 30 | 03:53 | E 19 | 16.09 | Fair | CLR | 25.6 | 23.9 | 90% | 27 | 76.25 | 1016.5 | ||||||
| 30 | 02:53 | E 19 | 16.09 | Fair | CLR | 26.1 | 23.3 | 85% | 28 | 76.28 | 1016.7 | ||||||
| Date | Time (edt) | Wind (kph) | Vis. (km) | Weather | Sky Cond. | Air | Dwpt | Max. | Min. | Relative Humidity | Wind Chill (°C) | Heat Index (°C) | altimeter (cm) | sea level (mb) | 1 hr | 3 hr | 6 hr |
| 6 hour | |||||||||||||||||
| Temperature (ºC) | Pressure | Precipitation (cm) | |||||||||||||||